createdAt,value
2018-03-28T00:00:42.348Z,49.67
2018-03-28T00:03:09.933Z,64.43
2018-03-28T00:05:37.625Z,52.67
2018-03-28T00:08:05.225Z,51.87
2018-03-28T00:10:32.813Z,53.10
2018-03-28T00:13:00.573Z,56.07
2018-03-28T00:15:28.183Z,49.07
2018-03-28T00:17:55.781Z,51.57
2018-03-28T00:20:23.414Z,67.77
2018-03-28T00:22:51.008Z,45.07
2018-03-28T00:25:18.600Z,56.87
2018-03-28T00:27:46.234Z,45.80
2018-03-28T00:30:13.830Z,47.77
2018-03-28T00:32:41.433Z,54.70
2018-03-28T00:35:09.073Z,56.70
2018-03-28T00:37:36.714Z,55.07
2018-03-28T00:40:04.314Z,60.83
2018-03-28T00:42:31.944Z,64.80
2018-03-28T00:44:59.542Z,52.70
2018-03-28T00:47:27.135Z,40.63
2018-03-28T00:49:54.763Z,42.43
2018-03-28T00:52:22.354Z,41.73
2018-03-28T00:54:49.950Z,40.73
2018-03-28T00:57:17.582Z,50.63
2018-03-28T00:59:45.191Z,63.03
2018-03-28T01:02:12.785Z,42.80
2018-03-28T01:04:40.440Z,36.83
2018-03-28T01:07:08.042Z,34.67
2018-03-28T01:09:35.629Z,25.87
2018-03-28T01:12:03.265Z,28.80
2018-03-28T01:14:30.862Z,27.50
2018-03-28T01:16:58.455Z,25.80
2018-03-28T01:19:26.093Z,34.20
2018-03-28T01:21:53.678Z,35.93
2018-03-28T01:24:21.267Z,29.07
2018-03-28T01:26:48.894Z,28.87
2018-03-28T01:29:16.489Z,35.43
2018-03-28T01:31:44.088Z,32.60
2018-03-28T01:34:11.714Z,34.00
2018-03-28T01:36:39.305Z,34.40
2018-03-28T01:39:06.919Z,32.50
2018-03-28T01:41:34.570Z,29.63
2018-03-28T01:44:02.169Z,32.63
2018-03-28T01:46:29.770Z,46.27
2018-03-28T01:48:57.411Z,42.70
2018-03-28T01:51:25.075Z,42.23
2018-03-28T01:53:52.674Z,35.90
2018-03-28T01:56:20.315Z,44.47
2018-03-28T01:58:47.900Z,36.53
2018-03-28T02:01:15.512Z,47.07
2018-03-28T02:03:43.174Z,36.73
2018-03-28T02:06:10.772Z,35.47
2018-03-28T02:08:38.363Z,35.40
2018-03-28T02:11:05.995Z,45.43
2018-03-28T02:13:33.589Z,52.17
2018-03-28T02:16:01.178Z,58.97
2018-03-28T02:18:28.800Z,49.30
2018-03-28T02:20:56.395Z,49.07
2018-03-28T02:23:24.012Z,48.87
2018-03-28T02:25:51.630Z,54.30
2018-03-28T02:28:19.232Z,44.83
2018-03-28T02:30:46.826Z,58.90
2018-03-28T02:33:14.460Z,46.57
2018-03-28T02:35:42.058Z,38.50
2018-03-28T02:38:09.654Z,50.47
2018-03-28T02:40:37.277Z,38.13
2018-03-28T02:43:04.907Z,38.17
2018-03-28T02:45:32.503Z,39.10
2018-03-28T02:48:00.144Z,44.73
2018-03-28T02:50:27.773Z,43.57
2018-03-28T02:52:55.376Z,42.00
2018-03-28T02:55:23.026Z,35.17
2018-03-28T02:57:50.628Z,65.17
2018-03-28T03:00:18.280Z,39.73
2018-03-28T03:02:45.932Z,60.93
2018-03-28T03:05:13.531Z,40.97
2018-03-28T03:07:41.130Z,48.60
2018-03-28T03:10:08.781Z,59.33
2018-03-28T03:12:36.372Z,55.67
2018-03-28T03:15:03.975Z,62.20
2018-03-28T03:17:31.615Z,32.13
2018-03-28T03:19:59.214Z,43.17
2018-03-28T03:22:26.804Z,40.50
2018-03-28T03:24:54.442Z,50.27
2018-03-28T03:27:22.044Z,34.63
2018-03-28T03:29:49.651Z,35.20
2018-03-28T03:32:17.289Z,34.80
2018-03-28T03:34:44.882Z,33.37
2018-03-28T03:37:12.474Z,37.97
2018-03-28T03:39:40.099Z,35.77
2018-03-28T03:42:07.710Z,37.30
2018-03-28T03:44:35.299Z,45.57
2018-03-28T03:47:02.934Z,32.10
2018-03-28T03:49:30.533Z,33.90
2018-03-28T03:51:58.125Z,33.00
2018-03-28T03:54:25.763Z,29.70
2018-03-28T03:56:53.354Z,33.50
2018-03-28T03:59:20.946Z,37.13
2018-03-28T04:01:48.590Z,37.90
2018-03-28T04:04:16.177Z,36.43
2018-03-28T04:06:43.772Z,40.00
2018-03-28T04:09:11.400Z,42.70
2018-03-28T04:11:39.001Z,42.90
2018-03-28T04:14:06.600Z,38.80
2018-03-28T04:16:34.476Z,38.13
2018-03-28T04:19:02.080Z,37.03
2018-03-28T04:21:29.666Z,39.23
2018-03-28T04:23:57.300Z,41.43
2018-03-28T04:26:24.893Z,34.20
2018-03-28T04:28:52.494Z,32.43
2018-03-28T04:31:20.168Z,32.47
2018-03-28T04:33:47.769Z,36.33
2018-03-28T04:36:15.355Z,36.70
2018-03-28T04:38:42.987Z,38.53
2018-03-28T04:41:10.586Z,33.73
2018-03-28T04:43:38.178Z,35.13
2018-03-28T04:46:05.810Z,45.60
2018-03-28T04:48:33.399Z,33.80
2018-03-28T04:51:01.002Z,39.50
2018-03-28T04:53:28.643Z,33.60
2018-03-28T04:55:56.243Z,32.20
2018-03-28T04:58:23.846Z,31.23
2018-03-28T05:00:51.474Z,31.10
2018-03-28T05:03:19.082Z,29.40
2018-03-28T05:05:46.675Z,34.47
2018-03-28T05:08:14.303Z,31.13
2018-03-28T05:10:41.891Z,32.10
2018-03-28T05:13:09.482Z,31.47
2018-03-28T05:15:37.137Z,32.53
2018-03-28T05:18:04.748Z,33.57
2018-03-28T05:20:32.368Z,32.63
2018-03-28T05:23:00.010Z,29.73
2018-03-28T05:25:27.596Z,31.40
2018-03-28T05:27:55.186Z,29.37
2018-03-28T05:30:22.818Z,28.17
2018-03-28T05:32:50.402Z,29.03
2018-03-28T05:35:17.990Z,29.17
2018-03-28T05:37:45.618Z,28.30
2018-03-28T05:40:13.210Z,30.13
2018-03-28T05:42:40.797Z,29.80
2018-03-28T05:45:08.487Z,30.53
2018-03-28T05:47:36.071Z,33.10
2018-03-28T05:50:03.671Z,35.67
2018-03-28T05:52:31.300Z,29.03
2018-03-28T05:54:58.899Z,27.70
2018-03-28T05:57:26.502Z,27.57
2018-03-28T05:59:54.125Z,27.83
2018-03-28T06:02:21.716Z,27.90
2018-03-28T06:04:49.294Z,25.10
2018-03-28T06:07:16.926Z,30.00
2018-03-28T06:09:44.506Z,30.50
2018-03-28T06:12:12.100Z,27.80
2018-03-28T06:14:39.730Z,28.80
2018-03-28T06:17:07.314Z,25.37
2018-03-28T06:19:34.899Z,28.57
2018-03-28T06:22:02.522Z,35.40
2018-03-28T06:24:30.110Z,41.67
2018-03-28T06:26:57.701Z,28.80
2018-03-28T06:29:25.403Z,31.97
2018-03-28T06:31:53.000Z,32.30
2018-03-28T06:34:20.589Z,33.63
2018-03-28T06:36:48.206Z,31.07
2018-03-28T06:39:15.801Z,35.70
2018-03-28T06:41:43.402Z,36.63
2018-03-28T06:44:11.031Z,36.93
2018-03-28T06:49:12.386Z,31.83
2018-03-28T06:51:39.976Z,33.27
2018-03-28T06:54:07.568Z,33.60
2018-03-28T06:56:35.192Z,35.10
2018-03-28T06:59:02.809Z,36.40
2018-03-28T07:01:30.406Z,33.87
2018-03-28T07:03:58.074Z,31.37
2018-03-28T07:06:25.662Z,31.10
2018-03-28T07:08:53.291Z,30.10
2018-03-28T07:11:20.967Z,26.73
2018-03-28T07:13:48.611Z,25.70
2018-03-28T07:16:17.120Z,26.30
2018-03-28T07:18:44.753Z,26.13
2018-03-28T07:21:12.518Z,31.30
2018-03-28T07:23:40.108Z,27.30
2018-03-28T07:26:07.740Z,29.47
2018-03-28T07:28:35.555Z,37.97
2018-03-28T07:31:04.936Z,56.80
2018-03-28T07:33:32.671Z,62.07
2018-03-28T07:36:00.330Z,79.53
2018-03-28T07:38:27.930Z,85.60
2018-03-28T07:40:58.473Z,78.97
2018-03-28T07:43:26.068Z,80.77
2018-03-28T07:45:53.662Z,77.30
2018-03-28T07:48:21.381Z,77.20
2018-03-28T07:50:49.277Z,77.03
2018-03-28T07:53:16.994Z,84.10
2018-03-28T07:55:44.675Z,75.67
2018-03-28T07:58:12.267Z,76.90
2018-03-28T08:00:39.974Z,69.57
2018-03-28T08:03:07.602Z,67.17
2018-03-28T08:05:35.237Z,58.37
2018-03-28T08:08:02.858Z,58.40
2018-03-28T08:10:30.544Z,49.67
2018-03-28T08:12:58.207Z,44.33
2018-03-28T08:15:25.827Z,44.00
2018-03-28T08:17:54.816Z,39.23
2018-03-28T08:20:22.642Z,32.13
2018-03-28T08:22:50.229Z,34.40
2018-03-28T08:25:18.610Z,32.57
2018-03-28T08:27:46.894Z,31.77
2018-03-28T08:30:14.498Z,33.23
2018-03-28T08:32:42.357Z,37.43
2018-03-28T08:35:09.943Z,33.70
2018-03-28T08:37:37.643Z,39.37
2018-03-28T08:40:05.307Z,46.57
2018-03-28T08:42:33.003Z,34.77
2018-03-28T08:45:01.556Z,37.70
2018-03-28T08:47:29.199Z,45.03
2018-03-28T08:49:56.823Z,51.17
2018-03-28T08:52:24.509Z,42.90
2018-03-28T08:54:52.149Z,43.33
2018-03-28T08:57:19.793Z,38.60
2018-03-28T08:59:48.499Z,41.63
2018-03-28T09:02:16.339Z,42.17
2018-03-28T09:04:44.139Z,39.63
2018-03-28T09:09:47.371Z,42.07
2018-03-28T09:12:15.318Z,38.70
2018-03-28T09:14:46.458Z,42.10
2018-03-28T09:17:14.423Z,42.10
2018-03-28T09:19:42.159Z,41.30
2018-03-28T09:22:13.929Z,32.77
2018-03-28T09:27:32.549Z,34.87
2018-03-28T09:30:01.766Z,34.60
2018-03-28T09:32:29.463Z,34.83
2018-03-28T09:34:57.080Z,29.83
2018-03-28T09:37:24.860Z,30.00
2018-03-28T09:39:52.808Z,27.23
2018-03-28T09:42:20.405Z,31.13
2018-03-28T09:44:48.228Z,30.90
2018-03-28T09:47:15.827Z,29.83
2018-03-28T09:49:43.416Z,29.07
2018-03-28T09:52:11.114Z,27.00
2018-03-28T09:54:41.093Z,26.90
2018-03-28T09:57:08.785Z,29.83
2018-03-28T09:59:36.444Z,25.00
2018-03-28T10:02:10.519Z,26.27
2018-03-28T10:04:43.561Z,26.00
2018-03-28T10:07:11.159Z,25.70
2018-03-28T10:09:38.773Z,26.53
2018-03-28T10:12:06.397Z,28.83
2018-03-28T10:14:33.989Z,27.13
2018-03-28T10:17:01.621Z,25.73
2018-03-28T10:19:30.869Z,25.60
2018-03-28T10:21:58.554Z,23.63
2018-03-28T10:24:27.318Z,22.90
2018-03-28T10:26:55.005Z,27.60
2018-03-28T10:29:23.665Z,24.23
2018-03-28T10:31:51.310Z,26.97
2018-03-28T10:34:19.051Z,24.87
2018-03-28T10:36:46.648Z,22.90
2018-03-28T10:39:14.515Z,22.13
2018-03-28T10:41:42.160Z,23.53
2018-03-28T10:44:09.785Z,23.37
2018-03-28T10:46:37.399Z,21.93
2018-03-28T10:49:07.422Z,23.30
2018-03-28T10:51:35.156Z,23.07
2018-03-28T10:54:02.857Z,19.90
2018-03-28T10:56:30.499Z,22.73
2018-03-28T10:58:58.440Z,21.63
2018-03-28T11:01:26.139Z,23.40
2018-03-28T11:03:53.756Z,21.77
2018-03-28T11:06:21.359Z,23.50
2018-03-28T11:08:49.019Z,25.43
2018-03-28T11:11:16.656Z,24.47
2018-03-28T11:13:44.255Z,25.83
2018-03-28T11:16:11.856Z,24.60
2018-03-28T11:18:39.496Z,24.80
2018-03-28T11:21:07.083Z,25.23
2018-03-28T11:23:34.658Z,24.30
2018-03-28T11:26:02.293Z,25.73
2018-03-28T11:28:29.865Z,24.10
2018-03-28T11:30:57.442Z,25.13
2018-03-28T11:33:25.054Z,29.63
2018-03-28T11:35:52.891Z,23.60
2018-03-28T11:38:20.473Z,24.10
2018-03-28T11:40:48.078Z,27.37
2018-03-28T11:43:15.670Z,24.10
2018-03-28T11:45:43.279Z,24.90
2018-03-28T11:48:10.940Z,22.47
2018-03-28T11:50:38.529Z,22.37
2018-03-28T11:53:06.129Z,22.13
2018-03-28T11:55:33.759Z,24.83
2018-03-28T11:58:01.371Z,26.17
2018-03-28T12:00:28.958Z,27.87
2018-03-28T12:02:56.572Z,25.67
2018-03-28T12:05:24.154Z,23.40
2018-03-28T12:07:51.746Z,21.47
2018-03-28T12:10:19.374Z,22.83
2018-03-28T12:12:46.947Z,25.30
2018-03-28T12:15:14.542Z,25.47
2018-03-28T12:17:42.178Z,24.47
2018-03-28T12:20:09.766Z,23.50
2018-03-28T12:22:37.358Z,23.67
2018-03-28T12:25:05.025Z,23.67
2018-03-28T12:27:32.594Z,24.00
2018-03-28T12:30:00.182Z,25.80
2018-03-28T12:32:27.873Z,25.47
2018-03-28T12:34:55.469Z,31.57
2018-03-28T12:37:23.054Z,19.77
2018-03-28T12:39:50.680Z,19.77
2018-03-28T12:42:18.577Z,27.00
2018-03-28T12:44:46.168Z,21.57
2018-03-28T12:47:13.866Z,23.80
2018-03-28T12:49:41.492Z,25.97
2018-03-28T12:52:09.802Z,26.03
2018-03-28T12:54:37.422Z,23.30
2018-03-28T12:57:04.997Z,27.53
2018-03-28T12:59:32.571Z,23.17
2018-03-28T13:02:00.197Z,27.73
2018-03-28T13:04:27.781Z,32.97
2018-03-28T13:06:55.356Z,27.40
2018-03-28T13:09:22.981Z,29.93
2018-03-28T13:11:50.552Z,35.67
2018-03-28T13:14:18.134Z,30.93
2018-03-28T13:16:45.760Z,27.70
2018-03-28T13:19:13.353Z,26.50
2018-03-28T13:21:40.914Z,26.60
2018-03-28T13:24:08.543Z,36.20
2018-03-28T13:26:36.134Z,33.80
2018-03-28T13:29:03.709Z,43.43
2018-03-28T13:31:31.379Z,36.60
2018-03-28T13:33:58.951Z,33.67
2018-03-28T13:36:26.553Z,68.03
2018-03-28T13:38:54.173Z,24.20
2018-03-28T13:41:21.779Z,28.13
2018-03-28T13:43:49.366Z,30.43
2018-03-28T13:46:16.975Z,31.07
2018-03-28T13:48:44.542Z,20.47
2018-03-28T13:51:12.164Z,21.60
2018-03-28T13:53:39.780Z,24.77
2018-03-28T13:56:07.357Z,25.10
2018-03-28T13:58:34.938Z,21.50
2018-03-28T14:01:02.629Z,25.33
2018-03-28T14:03:30.206Z,26.17
2018-03-28T14:05:57.812Z,25.60
2018-03-28T14:08:25.446Z,21.90
2018-03-28T14:10:53.026Z,19.93
2018-03-28T14:13:20.609Z,23.13
2018-03-28T14:15:48.225Z,19.40
2018-03-28T14:18:15.805Z,32.37
2018-03-28T14:20:43.385Z,26.87
2018-03-28T14:23:11.013Z,22.77
2018-03-28T14:25:38.586Z,23.97
2018-03-28T14:28:06.184Z,22.47
2018-03-28T14:30:33.828Z,20.43
2018-03-28T14:33:01.407Z,22.10
2018-03-28T14:35:29.012Z,19.30
2018-03-28T14:37:56.632Z,19.93
2018-03-28T14:40:24.207Z,19.70
2018-03-28T14:42:54.590Z,17.97
2018-03-28T14:45:19.436Z,45.37
2018-03-28T14:47:47.013Z,25.40
2018-03-28T14:50:14.588Z,25.77
2018-03-28T14:52:42.207Z,22.80
2018-03-28T14:55:09.798Z,24.33
2018-03-28T14:57:37.394Z,23.47
2018-03-28T15:00:05.006Z,21.33
2018-03-28T15:02:32.585Z,23.77
2018-03-28T15:05:00.161Z,32.80
2018-03-28T15:07:27.784Z,28.87
2018-03-28T15:09:55.364Z,24.03
2018-03-28T15:12:22.948Z,22.53
2018-03-28T15:14:50.550Z,26.43
2018-03-28T15:17:18.160Z,36.47
2018-03-28T15:19:45.783Z,153.53
2018-03-28T15:22:13.416Z,171.80
2018-03-28T15:24:41.015Z,138.77
2018-03-28T15:27:08.612Z,146.97
2018-03-28T15:29:36.234Z,96.73
2018-03-28T15:32:03.821Z,63.80
2018-03-28T15:34:31.425Z,53.20
2018-03-28T15:36:59.072Z,23.30
2018-03-28T15:39:26.708Z,19.90
2018-03-28T15:41:54.286Z,25.03
2018-03-28T15:44:21.942Z,33.33
2018-03-28T15:46:49.531Z,30.67
2018-03-28T15:49:17.117Z,25.13
2018-03-28T15:51:44.764Z,54.60
2018-03-28T15:54:12.358Z,56.57
2018-03-28T15:56:39.976Z,75.60
2018-03-28T15:59:07.645Z,24.47
2018-03-28T16:01:35.268Z,33.53
2018-03-28T16:04:02.854Z,28.23
2018-03-28T16:06:30.496Z,26.60
2018-03-28T16:08:58.078Z,24.00
2018-03-28T16:11:25.711Z,25.60
2018-03-28T16:13:53.584Z,22.07
2018-03-28T16:16:21.164Z,39.13
2018-03-28T16:18:48.754Z,73.50
2018-03-28T16:21:16.373Z,60.33
2018-03-28T16:23:43.943Z,34.37
2018-03-28T16:26:11.526Z,88.07
2018-03-28T16:28:39.155Z,118.50
2018-03-28T16:31:06.731Z,115.20
2018-03-28T16:33:34.363Z,41.83
2018-03-28T16:36:01.986Z,40.67
2018-03-28T16:38:29.576Z,41.00
2018-03-28T16:40:57.481Z,28.73
2018-03-28T16:43:25.138Z,29.20
2018-03-28T16:45:52.738Z,31.20
2018-03-28T16:48:20.375Z,44.53
2018-03-28T16:50:48.008Z,37.47
2018-03-28T16:53:15.586Z,32.67
2018-03-28T16:55:43.155Z,40.23
2018-03-28T16:58:10.793Z,48.50
2018-03-28T17:00:38.386Z,45.60
2018-03-28T17:03:05.968Z,45.10
2018-03-28T17:05:33.575Z,34.70
2018-03-28T17:08:01.168Z,48.87
2018-03-28T17:10:28.746Z,35.30
2018-03-28T17:12:56.358Z,34.47
2018-03-28T17:17:57.755Z,42.10
2018-03-28T17:20:25.327Z,44.13
2018-03-28T17:22:52.920Z,42.87
2018-03-28T17:25:20.539Z,44.53
2018-03-28T17:27:48.115Z,52.60
2018-03-28T17:30:15.751Z,52.60
2018-03-28T17:32:43.381Z,55.23
2018-03-28T17:35:10.956Z,63.87
2018-03-28T17:37:38.531Z,73.93
2018-03-28T17:40:06.195Z,58.60
2018-03-28T17:42:33.789Z,65.40
2018-03-28T17:45:01.386Z,60.50
2018-03-28T17:47:29.035Z,61.80
2018-03-28T17:49:56.625Z,55.83
2018-03-28T17:52:24.200Z,64.00
2018-03-28T17:54:51.817Z,60.67
2018-03-28T17:57:19.414Z,72.87
2018-03-28T17:59:46.993Z,47.87
2018-03-28T18:02:14.605Z,49.57
2018-03-28T18:04:42.185Z,40.57
2018-03-28T18:07:09.764Z,39.67
2018-03-28T18:09:37.371Z,40.43
2018-03-28T18:12:04.958Z,49.10
2018-03-28T18:14:32.563Z,49.27
2018-03-28T18:17:00.178Z,40.27
2018-03-28T18:19:27.960Z,39.73
2018-03-28T18:21:55.573Z,43.67
2018-03-28T18:24:23.202Z,46.27
2018-03-28T18:26:50.773Z,42.03
2018-03-28T18:29:18.383Z,46.03
2018-03-28T18:31:46.020Z,51.90
2018-03-28T18:34:13.619Z,47.17
2018-03-28T18:36:41.189Z,50.07
2018-03-28T18:39:08.813Z,45.37
2018-03-28T18:41:36.397Z,51.63
2018-03-28T18:44:03.992Z,51.17
2018-03-28T18:46:31.619Z,46.90
2018-03-28T18:48:59.202Z,47.93
2018-03-28T18:51:26.785Z,44.23
2018-03-28T18:53:54.465Z,45.67
2018-03-28T18:56:22.051Z,52.53
2018-03-28T18:58:49.646Z,50.00
2018-03-28T19:01:17.276Z,50.50
2018-03-28T19:03:44.875Z,53.90
2018-03-28T19:06:12.455Z,59.07
2018-03-28T19:08:40.076Z,58.47
2018-03-28T19:11:07.658Z,45.80
2018-03-28T19:13:35.265Z,49.43
2018-03-28T19:16:02.879Z,45.17
2018-03-28T19:18:30.500Z,50.70
2018-03-28T19:20:58.100Z,57.40
2018-03-28T19:23:25.710Z,46.23
2018-03-28T19:25:53.289Z,52.40
2018-03-28T19:28:20.881Z,51.50
2018-03-28T19:30:48.511Z,53.30
2018-03-28T19:33:16.137Z,54.77
2018-03-28T19:35:43.812Z,50.37
2018-03-28T19:38:11.443Z,52.37
2018-03-28T19:40:39.042Z,51.07
2018-03-28T19:43:06.649Z,51.90
2018-03-28T19:45:34.254Z,51.67
2018-03-28T19:48:01.841Z,49.80
2018-03-28T19:50:29.569Z,52.03
2018-03-28T19:52:57.201Z,55.70
2018-03-28T19:55:24.786Z,51.10
2018-03-28T19:57:52.383Z,49.27
2018-03-28T20:00:20.015Z,49.43
2018-03-28T20:02:47.594Z,48.63
2018-03-28T20:05:15.178Z,48.70
2018-03-28T20:07:42.835Z,47.47
2018-03-28T20:10:10.399Z,48.77
2018-03-28T20:12:37.972Z,46.73
2018-03-28T20:15:05.586Z,48.53
2018-03-28T20:17:35.901Z,51.27
2018-03-28T20:20:03.665Z,56.90
2018-03-28T20:22:31.297Z,56.60
2018-03-28T20:24:58.884Z,56.07
2018-03-28T20:27:26.465Z,52.80
2018-03-28T20:29:54.081Z,56.67
2018-03-28T20:32:21.672Z,54.33
2018-03-28T20:34:49.266Z,47.23
2018-03-28T20:37:16.881Z,46.87
2018-03-28T20:39:44.460Z,46.57
2018-03-28T20:42:12.081Z,52.10
2018-03-28T20:44:39.682Z,56.73
2018-03-28T20:47:07.284Z,57.50
2018-03-28T20:49:34.913Z,60.93
2018-03-28T20:52:02.542Z,57.60
2018-03-28T20:54:30.146Z,57.97
2018-03-28T20:56:57.735Z,56.60
2018-03-28T20:59:25.457Z,61.47
2018-03-28T21:01:53.048Z,60.00
2018-03-28T21:04:20.662Z,55.83
2018-03-28T21:06:48.295Z,51.37
2018-03-28T21:09:16.819Z,54.40
2018-03-28T21:11:44.409Z,52.47
2018-03-28T21:14:12.033Z,51.43
2018-03-28T21:16:39.610Z,54.37
2018-03-28T21:19:07.220Z,57.17
2018-03-28T21:21:34.859Z,52.87
2018-03-28T21:24:02.465Z,55.27
2018-03-28T21:26:30.046Z,54.77
2018-03-28T21:28:57.692Z,50.87
2018-03-28T21:31:25.284Z,73.03
2018-03-28T21:33:52.863Z,77.23
2018-03-28T21:36:20.473Z,68.30
2018-03-28T21:38:48.054Z,68.20
2018-03-28T21:41:15.645Z,60.50
2018-03-28T21:43:43.294Z,56.23
2018-03-28T21:46:10.918Z,52.50
2018-03-28T21:48:38.594Z,49.87
2018-03-28T21:51:06.228Z,48.90
2018-03-28T21:53:33.808Z,49.40
2018-03-28T21:56:01.390Z,53.50
2018-03-28T21:58:29.015Z,61.17
2018-03-28T22:00:56.609Z,58.87
2018-03-28T22:03:24.236Z,54.23
2018-03-28T22:05:52.032Z,48.97
2018-03-28T22:08:19.708Z,44.73
2018-03-28T22:10:47.339Z,51.40
2018-03-28T22:13:14.975Z,48.10
2018-03-28T22:15:42.577Z,44.90
2018-03-28T22:18:10.162Z,43.73
2018-03-28T22:20:37.794Z,43.80
2018-03-28T22:23:05.379Z,48.67
2018-03-28T22:25:32.971Z,41.60
2018-03-28T22:28:00.603Z,40.13
2018-03-28T22:30:28.207Z,41.97
2018-03-28T22:32:55.804Z,42.43
2018-03-28T22:35:23.450Z,45.80
2018-03-28T22:37:51.042Z,44.00
2018-03-28T22:40:18.657Z,46.53
2018-03-28T22:42:46.286Z,54.27
2018-03-28T22:45:13.925Z,53.93
2018-03-28T22:47:41.537Z,54.87
2018-03-28T22:50:09.167Z,58.50
2018-03-28T22:52:36.760Z,55.57
2018-03-28T22:55:04.363Z,58.97
2018-03-28T22:57:32.002Z,56.60
2018-03-28T22:59:59.599Z,54.30
2018-03-28T23:02:27.205Z,48.77
2018-03-28T23:04:54.860Z,51.57
2018-03-28T23:07:22.456Z,49.90
2018-03-28T23:09:50.090Z,49.60
2018-03-28T23:12:17.722Z,56.50
2018-03-28T23:14:45.326Z,50.80
2018-03-28T23:17:12.926Z,53.73
2018-03-28T23:19:40.610Z,52.10
2018-03-28T23:22:08.285Z,49.00
2018-03-28T23:24:35.886Z,47.73
2018-03-28T23:27:03.639Z,50.23
2018-03-28T23:29:31.241Z,43.60
2018-03-28T23:31:58.838Z,52.53
2018-03-28T23:34:26.472Z,59.10
2018-03-28T23:36:54.077Z,58.07
2018-03-28T23:39:21.682Z,55.47
2018-03-28T23:41:49.310Z,50.10
2018-03-28T23:44:16.922Z,54.00
2018-03-28T23:46:44.591Z,51.63
2018-03-28T23:49:12.242Z,47.00
2018-03-28T23:51:39.842Z,48.67
2018-03-28T23:54:07.449Z,47.97
2018-03-28T23:56:35.090Z,50.47
2018-03-28T23:59:02.694Z,51.57
